createdAt,value
2017-11-09T00:01:03.016Z,90.31
2017-11-09T00:03:04.759Z,90.50
2017-11-09T00:05:06.725Z,90.70
2017-11-09T00:07:08.338Z,90.89
2017-11-09T00:09:10.158Z,90.60
2017-11-09T00:11:12.090Z,91.08
2017-11-09T00:13:14.569Z,90.79
2017-11-09T00:15:16.312Z,90.98
2017-11-09T00:17:18.865Z,90.98
2017-11-09T00:19:21.312Z,90.89
2017-11-09T00:21:23.129Z,91.08
2017-11-09T00:23:25.328Z,91.17
2017-11-09T00:25:27.135Z,90.98
2017-11-09T00:27:28.809Z,90.79
2017-11-09T00:29:30.798Z,90.12
2017-11-09T00:32:13.295Z,90.98
2017-11-09T00:34:15.049Z,90.41
2017-11-09T00:36:16.864Z,90.41
2017-11-09T00:38:19.457Z,90.89
2017-11-09T00:40:21.242Z,91.27
2017-11-09T00:42:23.041Z,91.36
2017-11-09T00:44:25.551Z,91.84
2017-11-09T00:47:07.789Z,92.03
2017-11-09T00:49:09.242Z,92.22
2017-11-09T00:51:14.073Z,92.50
2017-11-09T00:53:16.645Z,92.79
2017-11-09T00:55:18.121Z,92.41
2017-11-09T00:57:19.742Z,92.22
2017-11-09T00:59:21.453Z,92.03
2017-11-09T01:01:24.834Z,92.32
2017-11-09T01:03:26.390Z,91.94
2017-11-09T01:05:28.886Z,91.94
2017-11-09T01:07:30.707Z,91.55
2017-11-09T01:09:32.570Z,91.94
2017-11-09T01:11:34.307Z,91.46
2017-11-09T01:13:35.927Z,90.98
2017-11-09T01:15:37.846Z,91.08
2017-11-09T01:17:39.664Z,90.98
2017-11-09T01:19:41.454Z,91.17
2017-11-09T01:21:43.198Z,91.17
2017-11-09T01:23:44.922Z,91.27
2017-11-09T01:25:46.619Z,91.08
2017-11-09T01:27:49.135Z,91.17
2017-11-09T01:29:50.897Z,91.36
2017-11-09T01:31:53.211Z,91.55
2017-11-09T01:34:36.753Z,91.65
2017-11-09T01:36:41.083Z,91.36
2017-11-09T01:38:42.765Z,91.55
2017-11-09T01:40:44.434Z,91.17
2017-11-09T01:42:46.378Z,91.08
2017-11-09T01:44:48.692Z,91.36
2017-11-09T01:46:50.421Z,91.27
2017-11-09T01:48:52.272Z,91.17
2017-11-09T01:51:35.438Z,91.17
2017-11-09T01:53:37.427Z,91.27
2017-11-09T01:55:38.997Z,91.03
2017-11-09T01:57:40.839Z,91.51
2017-11-09T01:59:43.320Z,92.08
2017-11-09T02:01:45.626Z,92.65
2017-11-09T02:03:47.433Z,92.55
2017-11-09T02:05:49.869Z,92.79
2017-11-09T02:07:51.618Z,92.32
2017-11-09T02:09:53.681Z,92.22
2017-11-09T02:11:55.697Z,92.22
2017-11-09T02:13:58.257Z,91.84
2017-11-09T02:16:00.105Z,91.84
2017-11-09T02:18:01.810Z,91.65
2017-11-09T02:20:03.534Z,91.65
2017-11-09T02:22:05.470Z,90.50
2017-11-09T02:24:07.141Z,90.89
2017-11-09T02:26:08.839Z,91.55
2017-11-09T02:28:10.811Z,91.55
2017-11-09T02:30:12.616Z,91.22
2017-11-09T02:32:14.334Z,91.36
2017-11-09T02:34:16.899Z,91.70
2017-11-09T02:36:19.394Z,92.18
2017-11-09T02:38:21.080Z,92.18
2017-11-09T02:40:22.793Z,93.08
2017-11-09T02:42:25.201Z,93.03
2017-11-09T02:44:26.963Z,92.65
2017-11-09T02:46:29.303Z,92.41
2017-11-09T02:48:31.754Z,92.50
2017-11-09T02:50:33.611Z,91.36
2017-11-09T02:52:35.604Z,91.51
2017-11-09T02:54:37.435Z,91.94
2017-11-09T02:56:39.214Z,92.08
2017-11-09T02:58:41.652Z,91.94
2017-11-09T03:00:43.744Z,91.79
2017-11-09T03:02:46.184Z,91.79
2017-11-09T03:04:48.445Z,91.60
2017-11-09T03:06:50.512Z,91.79
2017-11-09T03:08:52.261Z,91.46
2017-11-09T03:10:54.029Z,91.60
2017-11-09T03:12:56.591Z,91.99
2017-11-09T03:14:58.534Z,91.99
2017-11-09T03:17:00.538Z,92.18
2017-11-09T03:19:02.256Z,92.36
2017-11-09T03:21:04.006Z,92.65
2017-11-09T03:23:05.807Z,93.22
2017-11-09T03:25:07.664Z,92.84
2017-11-09T03:27:09.414Z,93.03
2017-11-09T03:29:11.425Z,92.65
2017-11-09T03:31:13.927Z,92.84
2017-11-09T03:33:15.534Z,92.65
2017-11-09T03:35:17.382Z,92.74
2017-11-09T03:37:19.141Z,92.94
2017-11-09T03:39:20.922Z,92.65
2017-11-09T03:42:03.821Z,93.03
2017-11-09T03:44:06.338Z,93.51
2017-11-09T03:46:08.081Z,93.03
2017-11-09T03:48:10.651Z,93.22
2017-11-09T03:50:12.569Z,93.70
2017-11-09T03:52:14.505Z,93.41
2017-11-09T03:54:16.474Z,93.70
2017-11-09T03:57:00.407Z,93.89
2017-11-09T03:59:02.188Z,93.41
2017-11-09T04:01:04.803Z,93.51
2017-11-09T04:03:06.328Z,93.51
2017-11-09T04:05:07.967Z,93.60
2017-11-09T04:07:09.497Z,93.51
2017-11-09T04:09:11.377Z,93.89
2017-11-09T04:11:13.783Z,93.94
2017-11-09T04:13:15.410Z,94.32
2017-11-09T04:15:58.831Z,93.89
2017-11-09T04:18:01.368Z,94.27
2017-11-09T04:20:05.288Z,94.13
2017-11-09T04:22:07.000Z,94.65
2017-11-09T04:24:08.546Z,94.17
2017-11-09T04:26:10.993Z,94.08
2017-11-09T04:28:53.737Z,93.60
2017-11-09T04:30:56.077Z,94.13
2017-11-09T04:32:57.855Z,94.89
2017-11-09T04:34:59.719Z,94.51
2017-11-09T04:37:01.519Z,94.70
2017-11-09T04:39:03.469Z,94.65
2017-11-09T04:41:05.213Z,94.13
2017-11-09T04:43:07.860Z,94.51
2017-11-09T04:45:50.431Z,94.89
2017-11-09T04:48:34.152Z,94.65
2017-11-09T04:50:36.700Z,94.70
2017-11-09T04:52:38.173Z,94.42
2017-11-09T04:54:39.764Z,94.42
2017-11-09T04:56:42.246Z,95.17
2017-11-09T04:58:44.006Z,95.08
2017-11-09T05:01:27.598Z,95.65
2017-11-09T05:03:29.681Z,95.17
2017-11-09T05:06:13.494Z,95.27
2017-11-09T05:08:14.874Z,94.70
2017-11-09T05:10:17.374Z,94.32
2017-11-09T05:12:19.234Z,94.42
2017-11-09T05:14:20.992Z,94.79
2017-11-09T05:16:22.816Z,94.17
2017-11-09T05:18:25.292Z,94.60
2017-11-09T05:20:27.038Z,94.37
2017-11-09T05:22:29.614Z,94.46
2017-11-09T05:24:31.992Z,94.22
2017-11-09T05:26:33.641Z,94.56
2017-11-09T05:28:35.463Z,94.89
2017-11-09T05:30:37.239Z,94.70
2017-11-09T05:33:20.280Z,94.89
2017-11-09T05:35:22.910Z,94.51
2017-11-09T05:37:24.879Z,94.79
2017-11-09T05:39:26.976Z,94.79
2017-11-09T05:41:29.327Z,95.17
2017-11-09T05:43:31.156Z,95.36
2017-11-09T05:45:32.971Z,95.65
2017-11-09T05:48:16.957Z,95.75
2017-11-09T05:50:19.290Z,95.84
2017-11-09T05:52:21.874Z,96.12
2017-11-09T05:54:24.133Z,96.60
2017-11-09T05:56:26.109Z,96.70
2017-11-09T05:58:28.014Z,96.89
2017-11-09T06:00:30.620Z,96.79
2017-11-09T06:02:33.058Z,96.89
2017-11-09T06:04:34.811Z,96.41
2017-11-09T06:06:36.917Z,96.60
2017-11-09T06:08:39.387Z,96.22
2017-11-09T06:10:41.859Z,96.12
2017-11-09T06:12:43.590Z,95.94
2017-11-09T06:14:45.202Z,95.65
2017-11-09T06:16:47.026Z,95.94
2017-11-09T06:18:48.771Z,95.75
2017-11-09T06:20:50.494Z,95.27
2017-11-09T06:22:52.301Z,95.46
2017-11-09T06:24:54.034Z,95.17
2017-11-09T06:26:56.262Z,95.36
2017-11-09T06:28:58.754Z,95.27
2017-11-09T06:31:00.505Z,94.79
2017-11-09T06:33:03.043Z,95.84
2017-11-09T06:35:50.710Z,96.31
2017-11-09T06:37:52.372Z,96.60
2017-11-09T06:39:54.798Z,96.79
2017-11-09T06:41:56.530Z,96.41
2017-11-09T06:43:58.832Z,95.65
2017-11-09T06:46:00.471Z,95.94
2017-11-09T06:48:02.295Z,95.36
2017-11-09T06:50:04.850Z,95.27
2017-11-09T06:52:06.553Z,95.56
2017-11-09T06:54:08.262Z,96.03
2017-11-09T06:56:10.232Z,96.03
2017-11-09T06:58:12.741Z,96.79
2017-11-09T07:00:15.289Z,96.12
2017-11-09T07:02:16.824Z,96.51
2017-11-09T07:04:18.581Z,96.79
2017-11-09T07:06:20.401Z,97.55
2017-11-09T07:08:22.354Z,97.08
2017-11-09T07:10:24.015Z,96.79
2017-11-09T07:12:26.005Z,96.98
2017-11-09T07:14:27.987Z,97.27
2017-11-09T07:16:29.736Z,97.55
2017-11-09T07:18:31.608Z,97.41
2017-11-09T07:20:33.369Z,97.79
2017-11-09T07:22:34.798Z,98.27
2017-11-09T07:24:36.734Z,98.55
2017-11-09T07:26:38.307Z,98.93
2017-11-09T07:28:40.428Z,98.74
2017-11-09T07:30:42.245Z,98.46
2017-11-09T07:32:44.098Z,98.83
2017-11-09T07:34:45.949Z,98.08
2017-11-09T07:36:47.829Z,97.74
2017-11-09T07:39:30.366Z,97.98
2017-11-09T07:41:31.761Z,98.08
2017-11-09T07:43:33.638Z,97.98
2017-11-09T07:45:35.423Z,97.93
2017-11-09T07:47:36.846Z,97.27
2017-11-09T07:49:38.469Z,97.46
2017-11-09T07:51:40.702Z,97.08
2017-11-09T07:53:42.288Z,96.31
2017-11-09T07:56:24.967Z,96.41
2017-11-09T07:58:26.457Z,96.70
2017-11-09T08:00:28.050Z,96.94
2017-11-09T08:02:32.641Z,97.98
2017-11-09T08:04:34.078Z,99.60
2017-11-09T08:06:35.608Z,99.99
2017-11-09T08:08:37.456Z,99.99
2017-11-09T08:10:39.245Z,99.99
2017-11-09T08:12:41.100Z,99.99
2017-11-09T08:14:42.844Z,99.99
2017-11-09T08:16:44.459Z,99.99
2017-11-09T08:18:46.874Z,99.99
2017-11-09T08:20:48.655Z,99.99
2017-11-09T08:22:50.164Z,99.99
2017-11-09T08:24:51.664Z,99.74
2017-11-09T08:26:54.111Z,99.74
2017-11-09T08:28:57.576Z,99.99
2017-11-09T08:30:59.097Z,99.74
2017-11-09T08:33:00.568Z,99.99
2017-11-09T08:35:02.497Z,99.99
2017-11-09T08:37:04.122Z,99.93
2017-11-09T08:39:05.816Z,99.99
2017-11-09T08:41:07.583Z,99.26
2017-11-09T08:43:09.194Z,99.02
2017-11-09T08:45:11.140Z,98.36
2017-11-09T08:47:12.793Z,98.36
2017-11-09T08:49:14.370Z,98.17
2017-11-09T08:51:15.831Z,96.84
2017-11-09T08:53:17.389Z,97.31
2017-11-09T08:55:19.062Z,96.65
2017-11-09T08:57:20.759Z,96.36
2017-11-09T09:00:03.144Z,96.31
2017-11-09T09:02:04.545Z,95.08
2017-11-09T09:04:06.041Z,94.70
2017-11-09T09:06:07.456Z,94.22
2017-11-09T09:08:08.873Z,94.27
2017-11-09T09:10:10.315Z,95.27
2017-11-09T09:12:11.736Z,94.70
2017-11-09T09:14:15.732Z,94.51
2017-11-09T09:16:17.311Z,94.51
2017-11-09T09:18:19.016Z,95.17
2017-11-09T09:20:20.839Z,94.37
2017-11-09T09:22:22.573Z,94.74
2017-11-09T09:24:24.106Z,94.18
2017-11-09T09:26:25.594Z,95.03
2017-11-09T09:28:27.290Z,95.36
2017-11-09T10:37:30.487Z,96.12
2017-11-09T10:39:32.324Z,96.60
2017-11-09T10:41:33.816Z,96.50
2017-11-09T10:43:35.488Z,97.03
2017-11-09T10:45:37.188Z,95.89
2017-11-09T10:47:38.917Z,95.22
2017-11-09T10:49:40.624Z,94.74
2017-11-09T10:51:42.365Z,93.51
2017-11-09T10:53:44.190Z,92.75
2017-11-09T10:55:45.844Z,92.51
2017-11-09T10:57:47.528Z,92.51
2017-11-09T10:59:49.109Z,92.56
2017-11-09T11:01:50.828Z,92.60
2017-11-09T11:03:52.470Z,91.51
2017-11-09T11:05:54.205Z,92.51
2017-11-09T11:07:55.884Z,91.51
2017-11-09T11:09:58.140Z,92.27
2017-11-09T11:11:59.798Z,91.42
2017-11-09T11:14:01.515Z,91.89
2017-11-09T11:16:03.446Z,92.08
2017-11-09T11:18:05.217Z,91.08
2017-11-09T11:20:06.952Z,90.75
2017-11-09T11:22:08.636Z,90.66
2017-11-09T11:24:10.330Z,90.47
2017-11-09T11:26:12.697Z,90.84
2017-11-09T11:28:14.957Z,91.99
2017-11-09T11:30:16.694Z,91.61
2017-11-09T11:32:18.431Z,91.22
2017-11-09T11:34:20.110Z,90.37
2017-11-09T11:36:21.759Z,90.56
2017-11-09T11:38:23.511Z,91.42
2017-11-09T11:40:25.297Z,90.18
2017-11-09T11:42:27.798Z,90.94
2017-11-09T11:44:29.496Z,91.42
2017-11-09T11:46:31.212Z,92.27
2017-11-09T11:48:33.135Z,92.27
2017-11-09T11:50:34.801Z,91.32
2017-11-09T11:52:36.581Z,91.80
2017-11-09T11:54:38.235Z,91.22
2017-11-09T11:56:39.844Z,90.94
2017-11-09T11:58:41.477Z,91.89
2017-11-09T12:00:43.153Z,91.51
2017-11-09T12:02:44.790Z,91.80
2017-11-09T12:04:46.488Z,91.70
2017-11-09T12:06:48.050Z,92.75
2017-11-09T12:08:49.681Z,92.65
2017-11-09T12:10:52.029Z,92.36
2017-11-09T12:12:54.338Z,91.61
2017-11-09T12:14:57.014Z,91.37
2017-11-09T12:16:59.303Z,91.70
2017-11-09T12:19:00.986Z,92.18
2017-11-09T12:21:02.640Z,90.94
2017-11-09T12:23:04.303Z,91.42
2017-11-09T12:25:06.231Z,91.03
2017-11-09T12:27:07.872Z,90.66
2017-11-09T12:29:09.598Z,90.94
2017-11-09T12:31:11.381Z,90.75
2017-11-09T12:33:13.002Z,90.66
2017-11-09T12:35:14.635Z,90.56
2017-11-09T12:37:16.258Z,90.75
2017-11-09T12:39:17.931Z,90.84
2017-11-09T12:41:19.666Z,91.22
2017-11-09T12:43:21.370Z,90.56
2017-11-09T12:45:23.008Z,89.70
2017-11-09T12:47:24.700Z,89.80
2017-11-09T12:49:26.316Z,89.32
2017-11-09T12:51:28.163Z,89.80
2017-11-09T12:53:29.775Z,90.37
2017-11-09T12:55:31.427Z,90.28
2017-11-09T12:57:33.488Z,90.61
2017-11-09T12:59:35.106Z,90.42
2017-11-09T13:01:37.259Z,89.51
2017-11-09T13:03:38.841Z,90.13
2017-11-09T13:05:40.475Z,89.56
2017-11-09T13:07:42.180Z,89.47
2017-11-09T13:09:43.859Z,89.37
2017-11-09T13:11:45.525Z,88.89
2017-11-09T13:13:47.162Z,88.32
2017-11-09T13:15:48.912Z,88.32
2017-11-09T13:17:50.583Z,88.46
2017-11-09T13:19:52.237Z,88.37
2017-11-09T13:21:54.042Z,88.18
2017-11-09T13:23:55.718Z,88.37
2017-11-09T13:25:57.465Z,87.75
2017-11-09T13:27:59.213Z,88.42
2017-11-09T13:30:00.904Z,88.70
2017-11-09T13:32:02.618Z,88.89
2017-11-09T13:34:04.652Z,88.13
2017-11-09T13:36:06.447Z,88.70
2017-11-09T13:38:08.169Z,88.99
2017-11-09T13:40:09.987Z,89.75
2017-11-09T13:42:11.724Z,89.56
2017-11-09T13:44:13.443Z,90.13
2017-11-09T13:46:15.269Z,89.56
2017-11-09T13:48:17.035Z,90.32
2017-11-09T13:50:18.941Z,90.22
2017-11-09T13:52:20.645Z,90.80
2017-11-09T13:54:22.353Z,90.42
2017-11-09T13:56:24.389Z,90.89
2017-11-09T13:58:26.156Z,90.99
2017-11-09T14:00:27.826Z,90.70
2017-11-09T14:02:29.518Z,90.80
2017-11-09T14:04:31.163Z,90.89
2017-11-09T14:06:32.910Z,90.99
2017-11-09T14:08:34.589Z,91.08
2017-11-09T14:10:36.217Z,91.56
2017-11-09T14:12:37.957Z,91.46
2017-11-09T14:14:39.629Z,90.99
2017-11-09T14:16:41.362Z,91.56
2017-11-09T14:18:43.066Z,91.27
2017-11-09T14:20:44.895Z,91.17
2017-11-09T14:22:46.557Z,90.89
2017-11-09T14:24:48.264Z,91.27
2017-11-09T14:26:49.964Z,91.46
2017-11-09T14:28:51.601Z,91.56
2017-11-09T14:30:53.273Z,91.65
2017-11-09T14:32:54.964Z,91.75
2017-11-09T14:34:56.664Z,91.84
2017-11-09T14:36:58.364Z,90.99
2017-11-09T14:39:00.103Z,91.17
2017-11-09T14:41:01.823Z,91.75
2017-11-09T14:43:03.519Z,91.94
2017-11-09T14:45:05.217Z,91.84
2017-11-09T14:47:06.977Z,92.41
2017-11-09T14:49:08.802Z,92.70
2017-11-09T14:51:10.524Z,92.99
2017-11-09T14:53:12.564Z,92.60
2017-11-09T14:55:14.269Z,92.70
2017-11-09T14:57:16.050Z,92.99
2017-11-09T14:59:17.785Z,92.41
2017-11-09T15:01:19.484Z,92.60
2017-11-09T15:03:21.192Z,92.89
2017-11-09T15:05:23.045Z,92.60
2017-11-09T15:07:24.967Z,92.60
2017-11-09T15:09:27.101Z,93.18
2017-11-09T15:11:28.829Z,93.18
2017-11-09T15:13:30.667Z,93.55
2017-11-09T15:15:32.561Z,93.46
2017-11-09T15:17:34.282Z,93.46
2017-11-09T15:19:35.962Z,93.74
2017-11-09T15:21:37.738Z,94.03
2017-11-09T15:23:39.699Z,94.03
2017-11-09T15:25:42.465Z,94.03
2017-11-09T15:27:44.289Z,94.22
2017-11-09T15:29:46.007Z,94.22
2017-11-09T15:31:48.090Z,94.46
2017-11-09T15:33:49.985Z,94.65
2017-11-09T15:35:51.620Z,95.32
2017-11-09T15:37:53.237Z,94.84
2017-11-09T15:39:55.071Z,94.84
2017-11-09T15:41:56.918Z,95.51
2017-11-09T15:43:59.041Z,95.32
2017-11-09T15:46:00.717Z,95.03
2017-11-09T15:48:02.579Z,95.32
2017-11-09T15:50:04.614Z,95.70
2017-11-09T15:52:06.350Z,95.70
2017-11-09T15:54:08.310Z,96.08
2017-11-09T15:56:10.047Z,96.17
2017-11-09T15:58:11.787Z,95.89
2017-11-09T16:00:13.548Z,96.08
2017-11-09T16:02:16.150Z,95.79
2017-11-09T16:04:17.908Z,95.89
2017-11-09T16:06:19.917Z,95.98
2017-11-09T16:08:24.169Z,95.98
2017-11-09T16:10:26.504Z,95.79
2017-11-09T16:12:28.990Z,95.79
2017-11-09T16:14:31.106Z,95.89
2017-11-09T16:16:32.809Z,95.79
2017-11-09T16:18:34.687Z,96.46
2017-11-09T16:20:36.952Z,95.98
2017-11-09T16:22:38.275Z,95.70
2017-11-09T16:24:39.718Z,96.74
2017-11-09T16:26:45.333Z,96.84
2017-11-09T16:28:47.057Z,96.84
2017-11-09T16:30:48.733Z,96.55
2017-11-09T16:32:50.521Z,96.84
2017-11-09T16:34:52.245Z,96.55
2017-11-09T16:36:54.713Z,96.84
2017-11-09T16:38:56.829Z,96.46
2017-11-09T16:40:59.960Z,96.65
2017-11-09T16:43:01.871Z,96.41
2017-11-09T16:45:03.556Z,96.46
2017-11-09T16:47:05.378Z,96.46
2017-11-09T16:49:07.243Z,96.55
2017-11-09T16:51:09.033Z,95.84
2017-11-09T16:53:10.704Z,95.75
2017-11-09T16:55:12.454Z,96.03
2017-11-09T16:57:14.107Z,95.94
2017-11-09T16:59:15.751Z,95.75
2017-11-09T17:01:17.379Z,95.89
2017-11-09T17:03:19.137Z,95.70
2017-11-09T17:05:20.914Z,96.36
2017-11-09T17:07:22.569Z,96.46
2017-11-09T17:09:24.236Z,96.65
2017-11-09T17:11:26.012Z,96.55
2017-11-09T17:13:27.494Z,96.65
2017-11-09T17:15:29.204Z,96.36
2017-11-09T17:17:30.877Z,96.41
2017-11-09T17:19:32.659Z,96.70
2017-11-09T17:21:34.331Z,95.70
2017-11-09T17:23:35.968Z,96.36
2017-11-09T17:25:37.746Z,96.65
2017-11-09T17:27:39.571Z,96.74
2017-11-09T17:29:41.379Z,96.36
2017-11-09T17:31:43.016Z,96.12
2017-11-09T17:33:44.824Z,95.75
2017-11-09T17:35:46.602Z,96.03
2017-11-09T17:37:48.374Z,95.75
2017-11-09T17:39:50.071Z,96.03
2017-11-09T17:41:51.907Z,96.08
2017-11-09T17:43:54.027Z,96.55
2017-11-09T17:45:56.305Z,96.74
2017-11-09T17:47:58.427Z,96.79
2017-11-09T17:50:00.092Z,95.98
2017-11-09T17:52:01.727Z,96.65
2017-11-09T17:54:03.665Z,96.74
2017-11-09T17:56:05.285Z,96.60
2017-11-09T17:58:06.928Z,96.22
2017-11-09T18:00:08.552Z,96.51
2017-11-09T18:02:10.332Z,96.60
2017-11-09T18:04:12.668Z,96.70
2017-11-09T18:06:16.307Z,96.65
2017-11-09T18:08:19.717Z,96.12
2017-11-09T18:10:21.426Z,96.60
2017-11-09T18:12:23.803Z,96.79
2017-11-09T18:14:25.717Z,96.22
2017-11-09T18:16:27.361Z,96.79
2017-11-09T18:18:30.007Z,96.74
2017-11-09T18:20:31.034Z,97.03
2017-11-09T18:22:32.769Z,97.60
2017-11-09T18:24:35.280Z,97.88
2017-11-09T18:26:37.946Z,97.98
2017-11-09T18:28:39.610Z,98.46
2017-11-09T18:30:42.064Z,98.46
2017-11-09T18:32:43.811Z,98.27
2017-11-09T18:34:45.593Z,97.88
2017-11-09T18:36:47.272Z,97.98
2017-11-09T18:38:49.663Z,98.08
2017-11-09T18:40:51.367Z,97.79
2017-11-09T18:42:53.143Z,97.60
2017-11-09T18:44:55.484Z,98.46
2017-11-09T18:46:56.729Z,98.74
2017-11-09T18:48:59.494Z,99.69
2017-11-09T18:51:00.377Z,99.99
2017-11-09T18:53:02.226Z,99.99
2017-11-09T18:55:05.157Z,99.99
2017-11-09T18:57:06.785Z,99.99
2017-11-09T18:59:08.679Z,99.99
2017-11-09T19:01:10.975Z,99.99
2017-11-09T19:03:12.924Z,99.99
2017-11-09T19:05:15.383Z,99.99
2017-11-09T19:07:17.099Z,99.99
2017-11-09T19:09:18.751Z,99.99
2017-11-09T19:11:21.572Z,99.99
2017-11-09T19:13:23.600Z,99.99
2017-11-09T19:15:26.564Z,99.99
2017-11-09T19:17:28.197Z,99.99
2017-11-09T19:19:30.356Z,99.99
2017-11-09T19:21:32.914Z,99.99
2017-11-09T19:23:35.043Z,99.99
2017-11-09T19:25:36.711Z,99.99
2017-11-09T19:27:38.499Z,99.99
2017-11-09T19:29:40.609Z,99.99
2017-11-09T19:31:42.328Z,99.99
2017-11-09T19:33:44.135Z,99.99
2017-11-09T19:35:45.808Z,99.99
2017-11-09T19:37:47.891Z,99.99
2017-11-09T19:39:49.607Z,99.99
2017-11-09T19:41:51.147Z,99.99
2017-11-09T19:43:52.710Z,99.99
2017-11-09T19:45:54.237Z,99.99
2017-11-09T19:47:55.896Z,99.99
2017-11-09T19:49:57.518Z,99.99
2017-11-09T19:51:59.243Z,99.99
2017-11-09T19:54:01.113Z,99.99
2017-11-09T19:56:02.801Z,99.99
2017-11-09T19:58:04.606Z,99.99
2017-11-09T20:00:06.405Z,99.99
2017-11-09T20:02:08.518Z,99.99
2017-11-09T20:04:10.183Z,99.99
2017-11-09T20:06:12.066Z,99.99
2017-11-09T20:08:13.965Z,99.99
2017-11-09T20:10:15.801Z,99.99
2017-11-09T20:12:18.020Z,99.99
2017-11-09T20:14:20.019Z,99.99
2017-11-09T20:16:21.815Z,99.99
2017-11-09T20:18:23.476Z,99.99
2017-11-09T20:20:25.233Z,99.99
2017-11-09T20:22:27.139Z,99.99
2017-11-09T20:24:29.379Z,99.99
2017-11-09T20:26:31.963Z,99.99
2017-11-09T20:28:34.173Z,99.99
2017-11-09T20:30:36.018Z,99.99
2017-11-09T20:32:38.464Z,99.99
2017-11-09T20:34:40.150Z,99.99
2017-11-09T20:36:42.423Z,99.99
2017-11-09T20:38:43.906Z,99.99
2017-11-09T20:40:45.588Z,99.99
2017-11-09T20:42:47.323Z,99.99
2017-11-09T20:44:49.010Z,99.99
2017-11-09T20:46:51.210Z,99.99
2017-11-09T20:48:55.761Z,99.99
2017-11-09T20:50:57.457Z,99.99
2017-11-09T20:52:59.084Z,99.99
2017-11-09T20:55:00.749Z,99.99
2017-11-09T20:57:02.427Z,99.99
2017-11-09T20:59:04.093Z,99.99
2017-11-09T21:01:05.756Z,99.99
2017-11-09T21:03:08.356Z,99.99
2017-11-09T21:05:10.735Z,99.99
2017-11-09T21:07:12.466Z,99.99
2017-11-09T21:09:14.793Z,99.99
2017-11-09T21:11:17.668Z,99.99
2017-11-09T21:13:19.271Z,99.99
2017-11-09T21:15:22.269Z,99.99
2017-11-09T21:17:23.915Z,99.99
2017-11-09T21:19:25.588Z,99.99
2017-11-09T21:21:27.279Z,99.99
2017-11-09T21:23:29.913Z,99.99
2017-11-09T21:25:31.447Z,99.99
2017-11-09T21:27:33.151Z,99.99
2017-11-09T21:29:36.164Z,99.99
2017-11-09T21:31:38.152Z,99.99
2017-11-09T21:33:40.255Z,99.99
2017-11-09T21:35:41.832Z,99.99
2017-11-09T21:37:43.314Z,99.99
2017-11-09T21:39:45.195Z,99.99
2017-11-09T21:41:46.690Z,99.99
2017-11-09T21:43:48.408Z,99.99
2017-11-09T21:45:50.366Z,99.99
2017-11-09T21:47:51.848Z,99.99
2017-11-09T21:49:53.306Z,99.99
2017-11-09T21:51:54.806Z,99.99
2017-11-09T21:53:56.610Z,99.99
2017-11-09T21:55:58.360Z,99.99
2017-11-09T21:57:59.983Z,99.99
2017-11-09T22:00:01.693Z,99.99
2017-11-09T22:02:03.489Z,99.99
2017-11-09T22:04:05.201Z,99.99
2017-11-09T22:06:06.898Z,99.99
2017-11-09T22:08:08.551Z,99.99
2017-11-09T22:10:10.332Z,99.99
2017-11-09T22:12:11.981Z,99.99
2017-11-09T22:14:13.868Z,99.99
2017-11-09T22:16:15.620Z,99.99
2017-11-09T22:18:17.322Z,99.99
2017-11-09T22:20:19.142Z,99.99
2017-11-09T22:22:20.969Z,99.99
2017-11-09T22:24:22.881Z,99.99
2017-11-09T22:26:24.738Z,99.99
2017-11-09T22:28:26.623Z,99.99
2017-11-09T22:30:28.560Z,99.99
2017-11-09T22:32:30.202Z,99.99
2017-11-09T22:34:31.951Z,99.99
2017-11-09T22:36:33.792Z,99.99
2017-11-09T22:38:35.537Z,99.99
2017-11-09T22:40:37.221Z,99.99
2017-11-09T22:42:38.987Z,99.99
2017-11-09T22:44:40.804Z,99.99
2017-11-09T22:46:42.586Z,99.99
2017-11-09T22:48:44.429Z,99.99
2017-11-09T22:50:46.229Z,99.99
2017-11-09T22:52:47.918Z,99.99
2017-11-09T22:54:49.573Z,99.99
2017-11-09T22:56:51.413Z,99.99
2017-11-09T22:58:53.085Z,99.99
2017-11-09T23:00:54.836Z,99.99
2017-11-09T23:02:56.605Z,99.99
2017-11-09T23:04:58.305Z,99.99
2017-11-09T23:07:00.155Z,99.99
2017-11-09T23:09:01.973Z,99.99
2017-11-09T23:11:03.691Z,99.99
2017-11-09T23:13:05.601Z,99.99
2017-11-09T23:15:07.470Z,99.99
2017-11-09T23:17:09.268Z,99.99
2017-11-09T23:19:11.173Z,99.99
2017-11-09T23:21:12.883Z,99.99
2017-11-09T23:23:14.544Z,99.99
2017-11-09T23:25:16.416Z,99.99
2017-11-09T23:27:17.940Z,99.99
2017-11-09T23:29:19.947Z,99.99
2017-11-09T23:31:21.780Z,99.99
2017-11-09T23:33:23.466Z,99.99
2017-11-09T23:35:25.161Z,99.99
2017-11-09T23:37:26.937Z,99.99
2017-11-09T23:39:28.982Z,99.99
2017-11-09T23:41:30.711Z,99.99
2017-11-09T23:43:32.524Z,99.99
2017-11-09T23:45:34.302Z,99.99
2017-11-09T23:47:36.038Z,99.99
2017-11-09T23:49:37.658Z,99.99
2017-11-09T23:51:39.421Z,99.99
2017-11-09T23:53:41.054Z,99.99
2017-11-09T23:55:42.850Z,99.99
2017-11-09T23:57:44.565Z,99.99
2017-11-09T23:59:46.517Z,99.99
